< < Back
Terminal Aerodrome Forecast


Current Version              Previous Versions:   1  2  3  4  5  6  7  8  9  

Terminal Aerodrome Forecast

826
FTAK31 PAJN 062325
TAFAHN
TAF
PAHN 062325Z 0700/0724 12010G20KT P6SM -RA SCT009 OVC030
     FM070300 09010KT P6SM -SHRA SCT015 OVC035
     FM071100 09006KT P6SM VCSH SCT035 OVC060
     FM072100 09006KT P6SM SCT035 OVC060
      AMD LTD TO CLD VIS AND WIND=

Latest METAR

582
SAUS70 KWBC 070000 RRA
MTRAHN
METAR KAHN 062351Z 32007KT 290V360 10SM BKN100 19/03 A2987 RMK AO2
SLP114 T01940028 10228 20194 53008


USA.gov is the U.S. government's official web portal to all federal, state and local government web resources and services.